createdAt,value
2023-09-04T00:02:17.874Z,64.09
2023-09-04T00:04:45.164Z,61.83
2023-09-04T00:07:12.210Z,61.19
2023-09-04T00:09:38.996Z,60.73
2023-09-04T00:12:07.558Z,59.76
2023-09-04T00:14:34.313Z,58.56
2023-09-04T00:17:01.060Z,63.43
2023-09-04T00:19:27.915Z,63.40
2023-09-04T00:21:54.649Z,63.18
2023-09-04T00:24:22.464Z,61.89
2023-09-04T00:26:49.402Z,65.51
2023-09-04T00:29:16.445Z,66.45
2023-09-04T00:31:43.194Z,67.23
2023-09-04T00:34:12.693Z,69.27
2023-09-04T00:36:40.546Z,70.95
2023-09-04T00:39:07.364Z,70.79
2023-09-04T00:41:34.196Z,70.73
2023-09-04T00:44:01.354Z,70.82
2023-09-04T00:46:28.089Z,70.92
2023-09-04T00:48:55.634Z,71.24
2023-09-04T00:51:22.375Z,70.85
2023-09-04T00:53:49.137Z,72.86
2023-09-04T00:56:16.050Z,73.41
2023-09-04T00:58:42.849Z,73.93
2023-09-04T01:01:09.626Z,73.03
2023-09-04T01:03:36.902Z,74.21
2023-09-04T01:06:04.274Z,74.40
2023-09-04T01:08:31.104Z,72.43
2023-09-04T01:10:57.991Z,71.40
2023-09-04T01:13:26.612Z,69.68
2023-09-04T01:15:53.882Z,73.14
2023-09-04T01:18:21.107Z,71.29
2023-09-04T01:21:00.209Z,70.49
2023-09-04T01:23:27.948Z,70.00
2023-09-04T01:25:59.500Z,71.72
2023-09-04T01:28:39.973Z,71.55
2023-09-04T01:31:19.128Z,73.10
2023-09-04T01:33:51.800Z,72.67
2023-09-04T01:36:18.895Z,71.81
2023-09-04T01:38:45.917Z,73.37
2023-09-04T01:41:12.780Z,73.20
2023-09-04T01:43:40.398Z,71.89
2023-09-04T01:46:07.276Z,71.73
2023-09-04T01:48:34.789Z,71.04
2023-09-04T01:51:02.005Z,71.90
2023-09-04T01:53:29.622Z,71.24
2023-09-04T01:55:56.884Z,71.80
2023-09-04T01:58:24.212Z,71.70
2023-09-04T02:00:51.199Z,71.51
2023-09-04T02:03:18.133Z,72.46
2023-09-04T02:05:46.251Z,72.71
2023-09-04T02:08:13.356Z,72.49
2023-09-04T02:10:40.587Z,72.98
2023-09-04T02:13:07.362Z,73.04
2023-09-04T02:15:36.247Z,73.45
2023-09-04T02:18:03.774Z,73.33
2023-09-04T02:20:31.179Z,73.85
2023-09-04T02:22:58.614Z,73.46
2023-09-04T02:25:26.264Z,73.66
2023-09-04T02:27:53.166Z,73.19
2023-09-04T02:30:20.313Z,73.54
2023-09-04T02:32:48.590Z,73.50
2023-09-04T02:35:16.810Z,73.47
2023-09-04T02:37:43.857Z,73.41
2023-09-04T02:40:11.667Z,73.24
2023-09-04T02:42:51.862Z,73.66
2023-09-04T02:45:19.129Z,73.40
2023-09-04T02:47:46.033Z,73.99
2023-09-04T02:50:13.238Z,74.98
2023-09-04T02:52:41.678Z,74.51
2023-09-04T02:55:09.033Z,74.95
2023-09-04T02:57:36.225Z,75.52
2023-09-04T03:00:03.571Z,75.17
2023-09-04T03:02:31.494Z,75.17
2023-09-04T03:04:58.338Z,75.84
2023-09-04T03:07:25.124Z,75.57
2023-09-04T03:09:55.043Z,75.10
2023-09-04T03:12:22.021Z,75.70
2023-09-04T03:14:54.940Z,76.01
2023-09-04T03:17:24.530Z,75.62
2023-09-04T03:19:53.879Z,75.92
2023-09-04T03:22:21.571Z,75.36
2023-09-04T03:24:49.368Z,75.30
2023-09-04T03:27:16.158Z,75.56
2023-09-04T03:29:44.225Z,75.74
2023-09-04T03:32:22.240Z,76.14
2023-09-04T03:34:49.060Z,76.21
2023-09-04T03:37:19.298Z,75.65
2023-09-04T03:39:46.178Z,75.92
2023-09-04T03:42:14.068Z,75.99
2023-09-04T03:44:43.588Z,75.48
2023-09-04T03:47:10.970Z,75.71
2023-09-04T03:49:38.095Z,76.36
2023-09-04T03:52:05.877Z,75.71
2023-09-04T03:54:33.364Z,75.84
2023-09-04T03:57:00.071Z,75.85
2023-09-04T03:59:27.930Z,76.28
2023-09-04T04:01:54.784Z,76.37
2023-09-04T04:04:24.672Z,76.67
2023-09-04T04:06:52.484Z,76.50
2023-09-04T04:09:20.757Z,77.13
2023-09-04T04:11:47.956Z,76.77
2023-09-04T04:14:18.649Z,77.15
2023-09-04T04:16:54.750Z,76.79
2023-09-04T04:19:21.780Z,77.44
2023-09-04T04:21:49.873Z,77.38
2023-09-04T04:24:16.618Z,77.47
2023-09-04T04:26:44.334Z,77.38
2023-09-04T04:29:11.086Z,77.17
2023-09-04T04:31:42.246Z,76.57
2023-09-04T04:34:09.286Z,76.27
2023-09-04T04:36:36.745Z,74.71
2023-09-04T04:39:03.519Z,74.02
2023-09-04T04:41:32.897Z,75.17
2023-09-04T04:43:59.756Z,75.67
2023-09-04T04:46:27.070Z,76.12
2023-09-04T04:48:54.353Z,75.33
2023-09-04T04:51:21.524Z,74.99
2023-09-04T04:53:49.572Z,74.69
2023-09-04T04:56:16.470Z,73.88
2023-09-04T04:58:44.455Z,74.12
2023-09-04T05:01:11.222Z,73.88
2023-09-04T05:03:38.646Z,74.00
2023-09-04T05:06:09.814Z,74.16
2023-09-04T05:08:37.590Z,73.73
2023-09-04T05:11:05.247Z,73.33
2023-09-04T05:13:32.235Z,73.50
2023-09-04T05:15:59.652Z,72.62
2023-09-04T05:18:27.028Z,72.68
2023-09-04T05:20:54.192Z,72.77
2023-09-04T05:23:21.392Z,72.36
2023-09-04T05:25:53.935Z,72.65
2023-09-04T05:28:20.902Z,72.87
2023-09-04T05:30:48.719Z,73.21
2023-09-04T05:33:15.824Z,73.65
2023-09-04T05:35:42.985Z,72.91
2023-09-04T05:38:10.113Z,73.35
2023-09-04T05:40:36.887Z,73.76
2023-09-04T05:43:03.829Z,72.76
2023-09-04T05:45:31.913Z,72.59
2023-09-04T05:47:58.747Z,71.89
2023-09-04T05:50:25.887Z,74.18
2023-09-04T05:52:52.803Z,74.29
2023-09-04T05:55:19.878Z,74.89
2023-09-04T05:57:47.386Z,73.92
2023-09-04T06:00:15.470Z,74.56
2023-09-04T06:02:42.234Z,73.83
2023-09-04T06:05:09.488Z,73.90
2023-09-04T06:07:36.473Z,73.61
2023-09-04T06:10:03.771Z,71.84
2023-09-04T06:12:30.513Z,69.78
2023-09-04T06:14:57.629Z,71.48
2023-09-04T06:17:24.845Z,70.82
2023-09-04T06:19:51.713Z,72.09
2023-09-04T06:22:19.004Z,69.77
2023-09-04T06:24:49.628Z,71.93
2023-09-04T06:27:16.425Z,72.26
2023-09-04T06:29:43.289Z,71.93
2023-09-04T06:32:13.293Z,73.75
2023-09-04T06:34:40.443Z,72.22
2023-09-04T06:37:08.006Z,72.24
2023-09-04T06:39:34.805Z,73.89
2023-09-04T06:42:01.556Z,74.11
2023-09-04T06:44:28.620Z,72.71
2023-09-04T06:46:55.404Z,72.54
2023-09-04T06:49:22.528Z,72.01
2023-09-04T06:51:50.344Z,69.71
2023-09-04T06:54:19.781Z,68.94
2023-09-04T06:56:46.496Z,65.20
2023-09-04T06:59:13.242Z,63.81
2023-09-04T07:01:41.442Z,64.70
2023-09-04T07:04:09.430Z,64.63
2023-09-04T07:06:36.883Z,66.43
2023-09-04T07:09:03.720Z,66.16
2023-09-04T07:11:30.453Z,67.29
2023-09-04T07:13:57.367Z,67.30
2023-09-04T07:16:37.505Z,68.44
2023-09-04T07:19:07.524Z,67.73
2023-09-04T07:21:34.514Z,66.75
2023-09-04T07:24:02.646Z,66.78
2023-09-04T07:26:29.554Z,65.54
2023-09-04T07:28:57.090Z,63.27
2023-09-04T07:31:24.284Z,61.79
2023-09-04T07:33:51.149Z,63.33
2023-09-04T07:36:17.935Z,63.56
2023-09-04T07:38:46.101Z,63.55
2023-09-04T07:41:12.937Z,63.41
2023-09-04T07:43:39.716Z,62.89
2023-09-04T07:46:06.726Z,64.45
2023-09-04T07:48:33.628Z,62.74
2023-09-04T07:51:00.388Z,61.61
2023-09-04T07:53:27.500Z,60.28
2023-09-04T07:55:55.228Z,60.04
2023-09-04T07:58:22.341Z,60.34
2023-09-04T08:00:50.448Z,58.74
2023-09-04T08:03:17.786Z,58.46
2023-09-04T08:05:45.009Z,58.21
2023-09-04T08:08:11.788Z,57.51
2023-09-04T08:10:42.217Z,57.23
2023-09-04T08:13:14.322Z,59.12
2023-09-04T08:15:41.775Z,58.61
2023-09-04T08:18:10.313Z,57.06
2023-09-04T08:20:37.077Z,55.77
2023-09-04T08:23:04.336Z,60.39
2023-09-04T08:25:34.078Z,59.74
2023-09-04T08:28:06.893Z,60.32
2023-09-04T08:30:33.652Z,60.59
2023-09-04T08:33:00.697Z,60.21
2023-09-04T08:35:27.515Z,59.35
2023-09-04T08:37:54.252Z,59.41
2023-09-04T08:40:21.043Z,58.58
2023-09-04T08:42:48.296Z,60.28
2023-09-04T08:45:15.622Z,59.75
2023-09-04T08:47:42.510Z,63.26
2023-09-04T08:50:10.725Z,62.47
2023-09-04T08:52:38.408Z,63.14
2023-09-04T08:55:06.617Z,63.36
2023-09-04T08:57:49.676Z,61.52
2023-09-04T09:00:16.833Z,60.86
2023-09-04T09:02:43.744Z,62.19
2023-09-04T09:05:11.902Z,62.40
2023-09-04T09:07:38.958Z,63.61
2023-09-04T09:10:06.222Z,61.35
2023-09-04T09:12:32.996Z,62.91
2023-09-04T09:15:00.204Z,66.87
2023-09-04T09:17:26.996Z,63.34
2023-09-04T09:19:54.799Z,60.38
2023-09-04T09:22:22.365Z,61.07
2023-09-04T09:24:55.340Z,58.67
2023-09-04T09:27:26.291Z,58.09
2023-09-04T09:29:55.548Z,58.23
2023-09-04T09:32:23.148Z,59.03
2023-09-04T09:34:55.628Z,59.60
2023-09-04T09:37:24.061Z,59.99
2023-09-04T09:39:50.788Z,58.85
2023-09-04T09:42:47.632Z,57.41
2023-09-04T09:45:14.619Z,57.69
2023-09-04T09:47:41.752Z,57.38
2023-09-04T09:50:08.894Z,57.05
2023-09-04T09:52:36.906Z,57.14
2023-09-04T09:55:04.608Z,57.64
2023-09-04T09:57:33.970Z,57.20
2023-09-04T10:00:01.072Z,57.47
2023-09-04T10:02:27.898Z,57.40
2023-09-04T10:04:54.796Z,57.84
2023-09-04T10:07:23.089Z,55.56
2023-09-04T10:09:52.677Z,54.82
2023-09-04T10:12:25.977Z,54.71
2023-09-04T10:14:52.718Z,55.83
2023-09-04T10:17:22.631Z,56.31
2023-09-04T10:19:50.157Z,55.78
2023-09-04T10:22:19.895Z,55.00
2023-09-04T10:25:05.935Z,54.52
2023-09-04T10:27:34.143Z,53.03
2023-09-04T10:30:04.524Z,55.18
2023-09-04T10:32:31.848Z,54.78
2023-09-04T10:34:58.654Z,54.71
2023-09-04T10:37:27.221Z,54.86
2023-09-04T10:39:57.061Z,55.75
2023-09-04T10:42:25.702Z,53.90
2023-09-04T10:44:53.534Z,54.80
2023-09-04T10:47:21.368Z,54.22
2023-09-04T10:49:48.533Z,52.68
2023-09-04T10:52:15.385Z,52.94
2023-09-04T10:54:42.460Z,51.90
2023-09-04T10:57:09.865Z,52.92
2023-09-04T11:00:01.998Z,51.07
2023-09-04T11:02:30.754Z,50.58
2023-09-04T11:04:58.227Z,51.50
2023-09-04T11:07:26.408Z,51.14
2023-09-04T11:09:54.994Z,52.87
2023-09-04T11:12:22.393Z,53.32
2023-09-04T11:14:52.223Z,55.21
2023-09-04T11:17:23.150Z,54.26
2023-09-04T11:19:50.508Z,52.82
2023-09-04T11:22:20.037Z,51.19
2023-09-04T11:24:47.182Z,51.46
2023-09-04T11:27:15.190Z,51.54
2023-09-04T11:29:44.006Z,52.37
2023-09-04T11:32:10.819Z,52.31
2023-09-04T11:34:38.009Z,52.96
2023-09-04T11:37:05.588Z,52.38
2023-09-04T11:39:32.325Z,49.31
2023-09-04T11:42:00.874Z,51.43
2023-09-04T11:44:28.331Z,50.49
2023-09-04T11:46:58.121Z,48.49
2023-09-04T11:49:25.245Z,47.44
2023-09-04T11:51:53.463Z,48.97
2023-09-04T11:54:21.964Z,48.81
2023-09-04T11:56:49.113Z,48.76
2023-09-04T11:59:16.335Z,48.31
2023-09-04T12:01:43.262Z,47.81
2023-09-04T12:04:10.111Z,48.67
2023-09-04T12:06:36.918Z,47.06
2023-09-04T12:09:03.757Z,48.04
2023-09-04T12:11:30.892Z,47.75
2023-09-04T12:14:10.207Z,47.75
2023-09-04T12:16:37.173Z,47.07
2023-09-04T12:19:06.129Z,48.19
2023-09-04T12:21:46.389Z,46.77
2023-09-04T12:24:14.294Z,47.13
2023-09-04T12:26:42.535Z,47.79
2023-09-04T12:29:10.263Z,49.33
2023-09-04T12:31:37.518Z,48.45
2023-09-04T12:34:04.892Z,49.57
2023-09-04T12:36:58.271Z,47.97
2023-09-04T12:39:25.948Z,47.54
2023-09-04T12:41:56.963Z,46.20
2023-09-04T12:44:23.720Z,46.36
2023-09-04T12:46:50.463Z,47.47
2023-09-04T12:49:20.395Z,46.21
2023-09-04T12:51:53.191Z,44.49
2023-09-04T12:54:20.314Z,45.26
2023-09-04T12:56:48.479Z,44.92
2023-09-04T12:59:15.648Z,44.67
2023-09-04T13:01:42.698Z,44.48
2023-09-04T13:04:09.471Z,44.40
2023-09-04T13:06:36.205Z,43.12
2023-09-04T13:09:03.411Z,44.91
2023-09-04T13:11:30.144Z,42.68
2023-09-04T13:13:57.484Z,44.13
2023-09-04T13:16:25.397Z,44.87
2023-09-04T13:18:52.268Z,44.32
2023-09-04T13:21:19.361Z,43.39
2023-09-04T13:23:46.958Z,41.84
2023-09-04T13:26:13.991Z,44.51
2023-09-04T13:28:40.792Z,45.29
2023-09-04T13:31:10.312Z,44.01
2023-09-04T13:33:40.897Z,44.23
2023-09-04T13:36:07.642Z,42.87
2023-09-04T13:38:34.395Z,43.38
2023-09-04T13:41:01.751Z,43.58
2023-09-04T13:43:29.059Z,42.62
2023-09-04T13:45:56.731Z,44.37
2023-09-04T13:48:23.543Z,44.89
2023-09-04T13:50:50.697Z,44.00
2023-09-04T13:53:17.794Z,43.40
2023-09-04T13:55:44.534Z,43.79
2023-09-04T13:58:11.269Z,44.24
2023-09-04T14:00:42.011Z,41.94
2023-09-04T14:03:08.991Z,42.04
2023-09-04T14:05:35.816Z,42.15
2023-09-04T14:08:02.721Z,40.65
2023-09-04T14:10:29.991Z,40.44
2023-09-04T14:12:56.814Z,41.84
2023-09-04T14:15:23.819Z,42.02
2023-09-04T14:17:51.147Z,45.29
2023-09-04T14:20:19.204Z,45.11
2023-09-04T14:22:45.956Z,45.99
2023-09-04T14:25:12.701Z,43.77
2023-09-04T14:27:39.719Z,44.70
2023-09-04T14:30:08.700Z,44.46
2023-09-04T14:32:35.450Z,42.38
2023-09-04T14:35:02.281Z,42.37
2023-09-04T14:37:29.319Z,42.07
2023-09-04T14:39:56.103Z,41.02
2023-09-04T14:42:22.901Z,40.22
2023-09-04T14:44:52.557Z,40.81
2023-09-04T14:47:19.476Z,41.41
2023-09-04T14:49:49.187Z,41.93
2023-09-04T14:52:15.909Z,41.12
2023-09-04T14:54:42.706Z,40.85
2023-09-04T14:57:17.756Z,41.20
2023-09-04T14:59:44.585Z,43.64
2023-09-04T15:02:11.778Z,42.96
2023-09-04T15:04:38.670Z,42.14
2023-09-04T15:07:05.561Z,42.56
2023-09-04T15:09:33.384Z,40.88
2023-09-04T15:12:00.572Z,42.60
2023-09-04T15:14:27.301Z,40.94
2023-09-04T15:16:54.046Z,40.97
2023-09-04T15:19:21.122Z,38.47
2023-09-04T15:21:49.597Z,37.79
2023-09-04T15:24:16.810Z,41.08
2023-09-04T15:26:43.630Z,40.28
2023-09-04T15:29:10.373Z,40.89
2023-09-04T15:31:37.192Z,40.23
2023-09-04T15:34:06.798Z,40.11
2023-09-04T15:36:33.562Z,40.26
2023-09-04T15:39:00.434Z,39.22
2023-09-04T15:41:27.321Z,38.92
2023-09-04T15:43:54.273Z,43.67
2023-09-04T15:46:21.197Z,42.63
2023-09-04T15:48:48.089Z,39.30
2023-09-04T15:51:15.470Z,39.71
2023-09-04T15:53:42.309Z,39.37
2023-09-04T15:56:09.099Z,41.66
2023-09-04T15:58:36.878Z,39.84
2023-09-04T16:01:03.650Z,39.99
2023-09-04T16:03:30.743Z,42.52
2023-09-04T16:05:57.524Z,41.27
2023-09-04T16:08:24.707Z,43.75
2023-09-04T16:10:51.803Z,43.09
2023-09-04T16:13:23.860Z,41.08
2023-09-04T16:15:50.755Z,40.98
2023-09-04T16:18:17.731Z,43.76
2023-09-04T16:20:46.420Z,40.75
2023-09-04T16:23:13.589Z,42.02
2023-09-04T16:25:40.948Z,42.56
2023-09-04T16:28:07.742Z,41.48
2023-09-04T16:30:35.660Z,43.53
2023-09-04T16:33:02.490Z,46.39
2023-09-04T16:35:30.876Z,43.75
2023-09-04T16:37:58.081Z,44.10
2023-09-04T16:40:25.998Z,43.50
2023-09-04T16:42:53.334Z,44.56
2023-09-04T16:45:20.223Z,42.28
2023-09-04T16:47:47.848Z,42.31
2023-09-04T16:50:15.257Z,42.73
2023-09-04T16:52:42.453Z,45.47
2023-09-04T16:55:09.570Z,43.39
2023-09-04T16:57:36.878Z,42.16
2023-09-04T17:00:05.267Z,42.48
2023-09-04T17:02:32.164Z,43.81
2023-09-04T17:05:00.055Z,44.15
2023-09-04T17:07:26.932Z,46.01
2023-09-04T17:09:55.301Z,47.07
2023-09-04T17:12:22.189Z,48.84
2023-09-04T17:14:49.498Z,48.72
2023-09-04T17:17:16.297Z,48.47
2023-09-04T17:19:43.089Z,48.76
2023-09-04T17:22:09.825Z,47.92
2023-09-04T17:24:39.719Z,46.77
2023-09-04T17:27:06.537Z,44.93
2023-09-04T17:29:33.626Z,44.59
2023-09-04T17:32:00.365Z,49.11
2023-09-04T17:34:29.383Z,47.80
2023-09-04T17:36:56.227Z,47.89
2023-09-04T17:39:23.428Z,48.00
2023-09-04T17:41:50.729Z,45.17
2023-09-04T17:44:17.839Z,46.45
2023-09-04T17:46:44.707Z,46.39
2023-09-04T17:49:11.603Z,46.89
2023-09-04T17:51:38.804Z,48.68
2023-09-04T17:54:05.657Z,48.04
2023-09-04T17:56:46.836Z,52.29
2023-09-04T17:59:13.663Z,49.78
2023-09-04T18:01:43.518Z,48.50
2023-09-04T18:04:10.504Z,50.31
2023-09-04T18:06:37.869Z,52.60
2023-09-04T18:09:05.735Z,52.40
2023-09-04T18:11:32.598Z,55.01
2023-09-04T18:13:59.394Z,54.06
2023-09-04T18:16:28.325Z,51.89
2023-09-04T18:18:55.668Z,53.39
2023-09-04T18:21:22.839Z,52.34
2023-09-04T18:23:50.986Z,53.24
2023-09-04T18:26:17.922Z,52.98
2023-09-04T18:28:46.247Z,53.72
2023-09-04T18:31:16.961Z,54.61
2023-09-04T18:33:44.996Z,57.43
2023-09-04T18:36:12.698Z,56.01
2023-09-04T18:38:39.723Z,55.97
2023-09-04T18:41:10.780Z,56.74
2023-09-04T18:43:38.016Z,57.82
2023-09-04T18:46:05.223Z,60.75
2023-09-04T18:48:33.603Z,62.26
2023-09-04T18:51:00.410Z,58.90
2023-09-04T18:53:27.194Z,59.04
2023-09-04T18:55:58.601Z,58.34
2023-09-04T18:58:26.022Z,57.70
2023-09-04T19:01:05.655Z,56.14
2023-09-04T19:03:32.455Z,56.95
2023-09-04T19:05:59.330Z,59.70
2023-09-04T19:08:26.328Z,60.96
2023-09-04T19:10:54.035Z,61.21
2023-09-04T19:13:21.913Z,60.89
2023-09-04T19:15:49.342Z,63.57
2023-09-04T19:18:16.086Z,66.20
2023-09-04T19:20:44.113Z,62.55
2023-09-04T19:23:12.170Z,64.38
2023-09-04T19:25:39.262Z,64.82
2023-09-04T19:28:08.384Z,66.44
2023-09-04T19:30:36.129Z,65.67
2023-09-04T19:33:04.212Z,66.38
2023-09-04T19:35:31.123Z,64.14
2023-09-04T19:37:57.935Z,65.44
2023-09-04T19:40:24.786Z,67.22
2023-09-04T19:42:51.580Z,64.30
2023-09-04T19:45:18.373Z,66.64
2023-09-04T19:47:45.153Z,67.04
2023-09-04T19:50:12.203Z,69.36
2023-09-04T19:52:38.929Z,69.41
2023-09-04T19:55:06.002Z,69.59
2023-09-04T19:57:32.717Z,70.51
2023-09-04T20:00:02.465Z,70.01
2023-09-04T20:02:29.675Z,70.43
2023-09-04T20:04:56.934Z,68.43
2023-09-04T20:07:23.836Z,66.94
2023-09-04T20:09:52.975Z,65.83
2023-09-04T20:12:20.910Z,66.11
2023-09-04T20:14:48.914Z,65.11
2023-09-04T20:17:16.788Z,62.60
2023-09-04T20:19:44.122Z,61.52
2023-09-04T20:22:12.244Z,60.65
2023-09-04T20:24:39.234Z,60.21
2023-09-04T20:27:12.469Z,61.14
2023-09-04T20:29:39.279Z,60.59
2023-09-04T20:32:06.339Z,61.41
2023-09-04T20:34:33.099Z,61.80
2023-09-04T20:37:00.000Z,61.11
2023-09-04T20:39:28.405Z,59.91
2023-09-04T20:42:11.982Z,60.60
2023-09-04T20:44:39.152Z,62.46
2023-09-04T20:47:07.374Z,61.86
2023-09-04T20:49:34.262Z,61.71
2023-09-04T20:52:01.011Z,61.10
2023-09-04T20:54:27.864Z,64.10
2023-09-04T20:56:54.691Z,63.86
2023-09-04T20:59:21.494Z,62.51
2023-09-04T21:01:49.170Z,62.32
2023-09-04T21:04:15.943Z,62.54
2023-09-04T21:06:43.124Z,63.34
2023-09-04T21:09:10.474Z,63.18
2023-09-04T21:11:37.603Z,61.57
2023-09-04T21:14:05.383Z,62.79
2023-09-04T21:16:32.212Z,61.97
2023-09-04T21:18:58.962Z,61.67
2023-09-04T21:21:26.106Z,62.79
2023-09-04T21:23:52.865Z,62.85
2023-09-04T21:26:19.769Z,62.15
2023-09-04T21:28:46.617Z,63.63
2023-09-04T21:31:13.413Z,61.73
2023-09-04T21:33:40.229Z,61.48
2023-09-04T21:36:07.068Z,63.98
2023-09-04T21:38:33.934Z,64.03
2023-09-04T21:41:01.145Z,63.21
2023-09-04T21:43:28.082Z,63.11
2023-09-04T21:45:56.258Z,64.20
2023-09-04T21:48:23.225Z,64.33
2023-09-04T21:50:50.302Z,66.05
2023-09-04T21:53:17.096Z,67.64
2023-09-04T21:55:47.100Z,68.14
2023-09-04T21:58:14.368Z,68.10
2023-09-04T22:00:42.542Z,68.21
2023-09-04T22:03:09.337Z,65.31
2023-09-04T22:05:36.102Z,67.21
2023-09-04T22:08:03.404Z,66.69
2023-09-04T22:10:30.326Z,67.60
2023-09-04T22:16:24.596Z,70.40
2023-09-04T22:18:51.375Z,70.77
2023-09-04T22:21:57.093Z,71.00
2023-09-04T22:24:23.897Z,71.79
2023-09-04T22:26:51.018Z,71.27
2023-09-04T22:29:17.733Z,71.94
2023-09-04T22:31:44.488Z,72.37
2023-09-04T22:34:11.225Z,72.95
2023-09-04T22:36:38.757Z,74.01
2023-09-04T22:39:05.909Z,73.41
2023-09-04T22:41:33.319Z,73.51
2023-09-04T22:44:00.407Z,74.45
2023-09-04T22:46:27.169Z,74.90
2023-09-04T22:48:55.672Z,74.47
2023-09-04T22:51:22.392Z,75.15
2023-09-04T22:53:49.139Z,74.71
2023-09-04T22:56:37.833Z,74.63
2023-09-04T22:59:04.716Z,76.25
2023-09-04T23:01:33.154Z,76.53
2023-09-04T23:03:59.894Z,76.42
2023-09-04T23:06:27.085Z,76.63
2023-09-04T23:08:54.193Z,76.98
2023-09-04T23:11:21.306Z,76.35
2023-09-04T23:13:48.083Z,76.30
2023-09-04T23:16:14.948Z,76.47
2023-09-04T23:18:42.060Z,76.90
2023-09-04T23:21:09.235Z,77.54
2023-09-04T23:23:35.997Z,77.99
2023-09-04T23:26:04.166Z,78.07
2023-09-04T23:28:30.978Z,78.52
2023-09-04T23:30:58.341Z,78.57
2023-09-04T23:33:25.383Z,77.97
2023-09-04T23:36:06.431Z,78.24
2023-09-04T23:38:33.290Z,78.45
2023-09-04T23:41:00.002Z,78.25
2023-09-04T23:43:26.934Z,78.53
2023-09-04T23:45:54.798Z,78.21
2023-09-04T23:48:22.636Z,78.66
2023-09-04T23:50:49.843Z,78.98
2023-09-04T23:53:16.563Z,79.25
2023-09-04T23:55:43.390Z,79.12
2023-09-04T23:58:10.546Z,79.39
